OIFS  Shahrekord Airport

Add Bookmark

Shahrekord, Iran

Status IATA
Operational CQD
Latitude Longitude
32° 17' 49" N 50° 50' 31" E
32.297199 50.842201
Local (DST + 5) UTC (GMT + 4)
Nov 23, 2014 12:35 Nov 22, 2014 21:05
Sunrise-Sunset Local UTC
Begin Civil Twilight 06:15 02:45
Sunrise 06:41 03:11
Sunset 05:04 13:34
End Civil Twilight 05:30 14:00

Current Weather

METAR Observed VFR
OIFS 222000Z 20010KT 9999 FEW035 09/02 Q1019 Sat, Nov 22, 2014 @ 20:00 UTC
(1 Hour, 5 Minutes ago)
Visual Flight Rules
Wind Visibility Clouds Conditions
200° at 10 knots (19 kph) 10 km or more
  • Few at 3,500' AGL
  • No significant weather
Temperatures Readings Precipitation
Current Temp 9°C (48°F)
Dewpoint 2°C (36°F)
Humidity 62%
Altimeter 30.09"Hg
Sea Level Pressure 1019mb
Field Elevation 6817.59'
None Recorded

Additional weather within a 185.2km radius of OIFS

Map ICAO Location
OIFM 108km E (062°)

24 Hour Weather History

Loading
-

24 Hour Weather Graphs

Loading
-

CheckWX.com is intended as a tool to help pilots better visualize weather data. It is not intended as a substitute for an official weather briefing obtained from a Flight Service Station. CheckWX.com does not meet the FAA requirements for an official pre-flight weather briefing. Therefore, it's important that pilots still call and obtain an official FSS pre-flight weather briefing.